Time;durP1;ratioP1;P1;durP2;ratioP2;P2;SDS_P1;SDS_P2;PMS_P1;PMS_P2;Temp;Humidity;BMP_temperature;BMP_pressure;BME280_temperature;BME280_humidity;BME280_pressure;Samples;Min_cycle;Max_cycle;Signal;HPM_P1;HPM_P2
2021/05/25 00:00:32;;;;;;;2.30;2.10;;;;;;;;;;2067487;28;20426;-78
2021/05/25 00:01:33;;;;;;;2.45;1.85;;;;;;;;;;2071872;28;20054;-81
2021/05/25 00:02:35;;;;;;;2.10;1.40;;;;;;;;;;2072888;28;20041;-79
2021/05/25 00:03:37;;;;;;;2.45;1.35;;;;;;;;;;2072066;28;20038;-79
2021/05/25 00:04:39;;;;;;;3.05;2.58;;;;;;;;;;2071811;28;20042;-80
2021/05/25 00:05:41;;;;;;;2.75;2.22;;;;;;;;;;2079968;28;20076;-80
2021/05/25 00:06:42;;;;;;;0.98;0.85;;;;;;;;;;2071756;28;20491;-78
2021/05/25 00:07:44;;;;;;;1.58;1.30;;;;;;;;;;2072635;28;20042;-79
2021/05/25 00:08:46;;;;;;;1.80;1.70;;;;;;;;;;2079817;28;20046;-79
2021/05/25 00:09:47;;;;;;;2.58;1.42;;;;;;;;;;2079282;28;20046;-78
2021/05/25 00:10:49;;;;;;;1.38;1.27;;;;;;;;;;2064516;28;20050;-80
2021/05/25 00:11:51;;;;;;;3.92;3.50;;;;;;;;;;2065225;28;20038;-80
2021/05/25 00:12:52;;;;;;;2.63;1.70;;;;;;;;;;2065648;28;20042;-78
2021/05/25 00:13:54;;;;;;;5.25;3.67;;;;;;;;;;2058084;28;20436;-78
2021/05/25 00:14:55;;;;;;;4.28;3.63;;;;;;;;;;2069244;28;20072;-80
2021/05/25 00:15:57;;;;;;;2.42;1.92;;;;;;;;;;2067130;28;20061;-78
2021/05/25 00:16:59;;;;;;;2.50;2.00;;;;;;;;;;2055362;28;20038;-79
2021/05/25 00:18:02;;;;;;;2.28;1.48;;;;;;;;;;2047678;28;20036;-79
2021/05/25 00:19:04;;;;;;;2.05;1.25;;;;;;;;;;2056235;28;20550;-80
2021/05/25 00:20:08;;;;;;;1.25;1.08;;;;;;;;;;2071292;28;20038;-79
2021/05/25 00:21:10;;;;;;;0.95;0.80;;;;;;;;;;2071024;28;20049;-79
2021/05/25 00:22:13;;;;;;;1.98;0.90;;;;;;;;;;2055592;28;20042;-79
2021/05/25 00:23:15;;;;;;;1.80;0.90;;;;;;;;;;2068039;28;20042;-79
2021/05/25 00:24:16;;;;;;;1.30;1.05;;;;;;;;;;2072593;28;20046;-79
2021/05/25 00:25:19;;;;;;;1.30;1.20;;;;;;;;;;2079732;28;20041;-79
2021/05/25 00:26:21;;;;;;;1.52;0.80;;;;;;;;;;2079929;28;20041;-79
2021/05/25 00:27:22;;;;;;;0.95;0.80;;;;;;;;;;2074576;28;20049;-79
2021/05/25 00:28:24;;;;;;;3.45;0.98;;;;;;;;;;2063647;28;20050;-80
2021/05/25 00:29:26;;;;;;;1.65;1.00;;;;;;;;;;2055360;28;20047;-79
2021/05/25 00:30:28;;;;;;;4.38;1.10;;;;;;;;;;2062539;28;20440;-79
2021/05/25 00:31:30;;;;;;;1.70;0.88;;;;;;;;;;2076921;28;20046;-79
2021/05/25 00:32:31;;;;;;;2.05;0.88;;;;;;;;;;2069967;28;20042;-79
2021/05/25 00:33:34;;;;;;;1.77;0.80;;;;;;;;;;2063333;28;20069;-80
2021/05/25 00:34:35;;;;;;;2.50;0.70;;;;;;;;;;2055519;28;20059;-80
2021/05/25 00:35:40;;;;;;;1.92;0.90;;;;;;;;;;2055569;28;20049;-79
2021/05/25 00:36:41;;;;;;;1.42;0.75;;;;;;;;;;2063904;28;20049;-79
2021/05/25 00:37:43;;;;;;;1.00;0.80;;;;;;;;;;2072088;28;20507;-80
2021/05/25 00:38:44;;;;;;;2.22;0.82;;;;;;;;;;2080005;28;20403;-79
2021/05/25 00:39:46;;;;;;;0.82;0.60;;;;;;;;;;2071344;28;20044;-79
2021/05/25 00:40:48;;;;;;;2.15;0.82;;;;;;;;;;2072415;28;20053;-78
2021/05/25 00:41:49;;;;;;;0.93;0.70;;;;;;;;;;2072756;28;20033;-80
2021/05/25 00:42:51;;;;;;;0.70;0.70;;;;;;;;;;2071993;28;20046;-79
2021/05/25 00:43:54;;;;;;;2.75;0.90;;;;;;;;;;2071594;28;20050;-80
2021/05/25 00:44:56;;;;;;;1.60;0.73;;;;;;;;;;2071336;28;20429;-78
2021/05/25 00:45:57;;;;;;;1.55;0.70;;;;;;;;;;2063635;28;20523;-80
2021/05/25 00:46:59;;;;;;;3.38;0.73;;;;;;;;;;2072206;28;20533;-80
2021/05/25 00:48:00;;;;;;;1.45;0.60;;;;;;;;;;2070138;28;20038;-80
2021/05/25 00:49:03;;;;;;;0.82;0.68;;;;;;;;;;2071208;28;20046;-79
2021/05/25 00:50:12;;;;;;;1.13;0.70;;;;;;;;;;2070968;28;20049;-80
2021/05/25 00:51:14;;;;;;;1.67;0.68;;;;;;;;;;2063399;28;20408;-80
2021/05/25 00:52:15;;;;;;;0.98;0.60;;;;;;;;;;2063760;28;20427;-78
2021/05/25 00:53:17;;;;;;;2.38;0.82;;;;;;;;;;2077004;28;20544;-79
2021/05/25 00:54:19;;;;;;;0.68;0.68;;;;;;;;;;2079407;28;20045;-78
2021/05/25 00:55:23;;;;;;;0.88;0.70;;;;;;;;;;2063260;28;20042;-78
2021/05/25 00:56:25;;;;;;;1.77;0.77;;;;;;;;;;2063983;28;20534;-78
2021/05/25 00:57:27;;;;;;;1.75;0.85;;;;;;;;;;2072503;28;20050;-80
2021/05/25 00:58:29;;;;;;;1.35;0.68;;;;;;;;;;2072096;28;20049;-79
2021/05/25 00:59:30;;;;;;;1.48;0.82;;;;;;;;;;2072237;28;20042;-80
2021/05/25 01:00:40;;;;;;;1.85;0.90;;;;;;;;;;2071998;28;20069;-79
2021/05/25 01:01:42;;;;;;;2.35;0.75;;;;;;;;;;2071810;28;20041;-78
2021/05/25 01:02:44;;;;;;;1.40;0.63;;;;;;;;;;2071401;28;20042;-78
2021/05/25 01:03:45;;;;;;;2.55;0.50;;;;;;;;;;2063538;28;20400;-80
2021/05/25 01:04:47;;;;;;;2.78;0.98;;;;;;;;;;2063350;28;20053;-79
2021/05/25 01:05:49;;;;;;;0.85;0.80;;;;;;;;;;2063915;28;20046;-79
2021/05/25 01:06:51;;;;;;;1.52;0.88;;;;;;;;;;2063450;28;20051;-79
2021/05/25 01:07:53;;;;;;;1.35;0.80;;;;;;;;;;2065321;28;20042;-78
2021/05/25 01:08:58;;;;;;;1.83;0.80;;;;;;;;;;2071725;28;20522;-80
2021/05/25 01:10:01;;;;;;;1.13;0.70;;;;;;;;;;2072507;28;20050;-79
2021/05/25 01:11:07;;;;;;;0.50;0.50;;;;;;;;;;2071678;28;20050;-79
2021/05/25 01:12:09;;;;;;;0.93;0.60;;;;;;;;;;2057345;28;20035;-80
2021/05/25 01:13:14;;;;;;;1.65;0.80;;;;;;;;;;2059421;28;20043;-79
2021/05/25 01:14:16;;;;;;;1.85;0.73;;;;;;;;;;2074878;28;20077;-79
2021/05/25 01:15:18;;;;;;;1.65;0.73;;;;;;;;;;2079727;28;20034;-79
2021/05/25 01:16:26;;;;;;;1.33;0.73;;;;;;;;;;2061725;28;20045;-79
2021/05/25 01:17:27;;;;;;;3.17;0.77;;;;;;;;;;2069346;28;20557;-78
2021/05/25 01:18:30;;;;;;;1.38;0.70;;;;;;;;;;2063299;28;20042;-80
2021/05/25 01:19:32;;;;;;;1.05;0.70;;;;;;;;;;2070970;28;20675;-80
2021/05/25 01:20:36;;;;;;;1.40;0.80;;;;;;;;;;2062910;28;20054;-79
2021/05/25 01:21:37;;;;;;;2.15;0.80;;;;;;;;;;2055751;28;20042;-79
2021/05/25 01:22:39;;;;;;;2.35;1.58;;;;;;;;;;2067126;28;20038;-79
2021/05/25 01:23:41;;;;;;;1.65;0.80;;;;;;;;;;2067247;28;20507;-78
2021/05/25 01:24:43;;;;;;;0.80;0.70;;;;;;;;;;2065127;28;20050;-79
2021/05/25 01:25:46;;;;;;;1.58;0.68;;;;;;;;;;2063160;28;20054;-79
2021/05/25 01:26:48;;;;;;;2.22;0.77;;;;;;;;;;2059426;28;20047;-79
2021/05/25 01:27:53;;;;;;;2.80;0.75;;;;;;;;;;2046723;28;20039;-78
2021/05/25 01:28:54;;;;;;;1.58;0.80;;;;;;;;;;2055991;28;20132;-78
2021/05/25 01:29:56;;;;;;;1.77;0.90;;;;;;;;;;2063686;28;20522;-78
2021/05/25 01:30:58;;;;;;;1.10;0.80;;;;;;;;;;2070547;28;20038;-78
2021/05/25 01:32:00;;;;;;;2.15;0.90;;;;;;;;;;2071328;28;20534;-79
2021/05/25 01:33:04;;;;;;;5.47;0.98;;;;;;;;;;2063241;28;20045;-79
2021/05/25 01:34:06;;;;;;;1.63;0.70;;;;;;;;;;2071721;28;20045;-80
2021/05/25 01:35:08;;;;;;;0.68;0.60;;;;;;;;;;2079391;28;20048;-79
2021/05/25 01:36:13;;;;;;;2.75;0.90;;;;;;;;;;2072039;28;20049;-80
2021/05/25 01:37:22;;;;;;;1.50;0.80;;;;;;;;;;2068422;28;20110;-79
2021/05/25 01:38:26;;;;;;;2.80;0.85;;;;;;;;;;2078553;28;20052;-80
2021/05/25 01:39:27;;;;;;;1.88;0.90;;;;;;;;;;2078927;28;20045;-79
2021/05/25 01:40:29;;;;;;;1.20;0.90;;;;;;;;;;2066323;28;20057;-79
2021/05/25 01:41:31;;;;;;;2.60;0.90;;;;;;;;;;2073525;28;20400;-80
2021/05/25 01:42:34;;;;;;;2.08;0.82;;;;;;;;;;2071930;28;20553;-80
2021/05/25 01:43:38;;;;;;;1.20;0.90;;;;;;;;;;2072557;28;20061;-79
2021/05/25 01:44:40;;;;;;;2.05;1.10;;;;;;;;;;2080171;28;20045;-80
2021/05/25 01:45:42;;;;;;;2.25;0.90;;;;;;;;;;2080113;28;20037;-79
2021/05/25 01:46:46;;;;;;;1.50;0.68;;;;;;;;;;2071963;28;20042;-79
2021/05/25 01:47:47;;;;;;;2.75;0.90;;;;;;;;;;2071740;28;20653;-79
2021/05/25 01:48:49;;;;;;;1.63;0.90;;;;;;;;;;2080080;28;20046;-78
2021/05/25 01:49:51;;;;;;;1.00;0.80;;;;;;;;;;2072641;28;20042;-79
2021/05/25 01:50:52;;;;;;;0.82;0.80;;;;;;;;;;2072714;28;20074;-80
2021/05/25 01:51:54;;;;;;;0.98;0.80;;;;;;;;;;2079803;28;20053;-78
2021/05/25 01:53:04;;;;;;;1.90;0.80;;;;;;;;;;2068460;28;21155;-78
2021/05/25 01:54:06;;;;;;;1.77;1.10;;;;;;;;;;2065061;28;20399;-79
2021/05/25 01:55:08;;;;;;;3.17;0.98;;;;;;;;;;2071841;28;20754;-78
2021/05/25 01:56:10;;;;;;;2.53;0.80;;;;;;;;;;2071789;28;20042;-79
2021/05/25 01:57:11;;;;;;;2.13;0.80;;;;;;;;;;2055688;28;20046;-79
2021/05/25 01:58:13;;;;;;;1.63;1.00;;;;;;;;;;2064084;28;20038;-81
2021/05/25 01:59:17;;;;;;;1.77;0.98;;;;;;;;;;2071721;28;20049;-79
2021/05/25 02:00:19;;;;;;;2.95;1.10;;;;;;;;;;2071439;28;20042;-78
2021/05/25 02:01:20;;;;;;;1.75;1.00;;;;;;;;;;2072769;28;20419;-79
2021/05/25 02:02:22;;;;;;;1.13;0.90;;;;;;;;;;2081238;28;20049;-79
2021/05/25 02:03:24;;;;;;;2.47;1.00;;;;;;;;;;2080785;28;20060;-78
2021/05/25 02:04:25;;;;;;;1.02;0.75;;;;;;;;;;2072836;28;20049;-80
2021/05/25 02:05:27;;;;;;;2.22;1.08;;;;;;;;;;2072985;28;20462;-79
2021/05/25 02:06:29;;;;;;;1.35;1.00;;;;;;;;;;2081048;28;20041;-80
2021/05/25 02:07:31;;;;;;;3.28;0.93;;;;;;;;;;2072309;28;20056;-79
2021/05/25 02:08:33;;;;;;;3.28;0.90;;;;;;;;;;2064313;28;20502;-78
2021/05/25 02:09:36;;;;;;;3.30;1.05;;;;;;;;;;2072832;28;20884;-78
2021/05/25 02:10:49;;;;;;;2.85;0.80;;;;;;;;;;2074137;28;20042;-80
2021/05/25 02:11:50;;;;;;;2.35;0.80;;;;;;;;;;2068417;28;20046;-78
2021/05/25 02:12:55;;;;;;;1.50;1.20;;;;;;;;;;2049134;28;20039;-80
2021/05/25 02:13:56;;;;;;;2.20;1.00;;;;;;;;;;2057487;28;20034;-78
2021/05/25 02:14:58;;;;;;;2.50;0.95;;;;;;;;;;2064992;28;20042;-80
2021/05/25 02:16:02;;;;;;;3.38;0.93;;;;;;;;;;2056828;28;20042;-79
2021/05/25 02:17:04;;;;;;;1.30;0.90;;;;;;;;;;2049970;28;20055;-80
2021/05/25 02:18:09;;;;;;;2.60;1.05;;;;;;;;;;2056271;28;20043;-80
2021/05/25 02:19:11;;;;;;;1.20;1.10;;;;;;;;;;2064708;28;20096;-79
2021/05/25 02:20:13;;;;;;;1.75;1.02;;;;;;;;;;2056053;28;20066;-80
2021/05/25 02:21:17;;;;;;;5.82;1.00;;;;;;;;;;2056868;28;20046;-79
2021/05/25 02:22:19;;;;;;;1.65;0.98;;;;;;;;;;2065037;28;20042;-80
2021/05/25 02:23:21;;;;;;;2.10;0.95;;;;;;;;;;2070823;28;20045;-79
2021/05/25 02:24:22;;;;;;;3.75;1.30;;;;;;;;;;2064810;28;20046;-78
2021/05/25 02:25:24;;;;;;;1.70;1.00;;;;;;;;;;2056769;28;20051;-79
2021/05/25 02:26:26;;;;;;;3.22;1.20;;;;;;;;;;2064567;28;20057;-80
2021/05/25 02:27:27;;;;;;;2.75;1.05;;;;;;;;;;2065617;28;20042;-78
2021/05/25 02:28:29;;;;;;;2.65;0.98;;;;;;;;;;2064122;28;20434;-79
2021/05/25 02:29:30;;;;;;;2.20;1.00;;;;;;;;;;2056525;28;20050;-78
2021/05/25 02:30:33;;;;;;;2.97;1.08;;;;;;;;;;2064294;28;20050;-78
2021/05/25 02:31:35;;;;;;;1.42;1.10;;;;;;;;;;2065666;28;20039;-79
2021/05/25 02:32:36;;;;;;;1.33;0.90;;;;;;;;;;2064221;28;20407;-78
2021/05/25 02:33:39;;;;;;;1.55;0.90;;;;;;;;;;2064596;28;20053;-78
2021/05/25 02:34:40;;;;;;;3.00;0.90;;;;;;;;;;2064765;28;20049;-78
2021/05/25 02:35:44;;;;;;;2.28;1.10;;;;;;;;;;2065322;28;20053;-79
2021/05/25 02:36:45;;;;;;;2.92;1.00;;;;;;;;;;2071960;28;20042;-78
2021/05/25 02:37:47;;;;;;;3.83;1.08;;;;;;;;;;2065765;28;20038;-80
2021/05/25 02:38:48;;;;;;;3.80;1.05;;;;;;;;;;2072465;28;20038;-78
2021/05/25 02:39:50;;;;;;;2.40;0.93;;;;;;;;;;2072550;28;20046;-80
2021/05/25 02:40:52;;;;;;;3.55;1.20;;;;;;;;;;2072271;28;20048;-78
2021/05/25 02:41:54;;;;;;;3.45;1.15;;;;;;;;;;2072426;28;20058;-80
2021/05/25 02:42:56;;;;;;;1.63;1.05;;;;;;;;;;2080504;28;20060;-79
2021/05/25 02:43:58;;;;;;;2.13;1.00;;;;;;;;;;2080533;28;20079;-78
2021/05/25 02:44:59;;;;;;;1.98;0.90;;;;;;;;;;2072460;28;20050;-79
2021/05/25 02:46:01;;;;;;;3.00;0.80;;;;;;;;;;2072382;28;20042;-79
2021/05/25 02:47:03;;;;;;;2.00;1.00;;;;;;;;;;2073402;28;20049;-80
2021/05/25 02:48:05;;;;;;;2.05;1.00;;;;;;;;;;2072900;28;20049;-78
2021/05/25 02:49:07;;;;;;;2.00;1.00;;;;;;;;;;2081044;28;20108;-78
2021/05/25 02:50:10;;;;;;;4.15;0.95;;;;;;;;;;2072367;28;20046;-78
2021/05/25 02:51:11;;;;;;;2.55;0.90;;;;;;;;;;2072539;28;20462;-78
2021/05/25 02:52:13;;;;;;;2.67;1.00;;;;;;;;;;2080445;28;20526;-78
2021/05/25 02:53:15;;;;;;;3.35;1.00;;;;;;;;;;2080109;28;20046;-80
2021/05/25 02:54:16;;;;;;;1.35;0.98;;;;;;;;;;2080696;28;20096;-79
2021/05/25 02:55:22;;;;;;;2.35;0.85;;;;;;;;;;2061986;28;20061;-78
2021/05/25 02:56:24;;;;;;;2.30;1.08;;;;;;;;;;2064265;28;20106;-79
2021/05/25 02:57:26;;;;;;;3.40;1.30;;;;;;;;;;2064501;28;20412;-78
2021/05/25 02:58:27;;;;;;;1.08;0.85;;;;;;;;;;2080451;28;20053;-80
2021/05/25 02:59:29;;;;;;;0.88;0.80;;;;;;;;;;2080468;28;20038;-80
2021/05/25 03:00:33;;;;;;;2.42;1.00;;;;;;;;;;2072753;28;20069;-80
2021/05/25 03:01:35;;;;;;;5.45;1.20;;;;;;;;;;2073210;28;20056;-79
2021/05/25 03:02:37;;;;;;;1.80;1.02;;;;;;;;;;2073765;28;20049;-79
2021/05/25 03:03:39;;;;;;;1.80;0.80;;;;;;;;;;2080401;28;20376;-78
2021/05/25 03:04:40;;;;;;;1.88;0.90;;;;;;;;;;2072681;28;20041;-79
2021/05/25 03:05:44;;;;;;;1.55;0.82;;;;;;;;;;2072014;28;20065;-79
2021/05/25 03:06:46;;;;;;;1.67;1.15;;;;;;;;;;2072905;28;20041;-80
2021/05/25 03:07:48;;;;;;;0.90;0.80;;;;;;;;;;2070855;28;20041;-79
2021/05/25 03:08:49;;;;;;;4.72;1.10;;;;;;;;;;2073705;28;20045;-80
2021/05/25 03:09:51;;;;;;;2.30;0.98;;;;;;;;;;2072715;28;20038;-79
2021/05/25 03:10:53;;;;;;;2.28;1.08;;;;;;;;;;2073187;28;20046;-80
2021/05/25 03:11:54;;;;;;;2.47;0.93;;;;;;;;;;2080412;28;20490;-79
2021/05/25 03:12:56;;;;;;;1.17;0.95;;;;;;;;;;2073918;28;20042;-79
2021/05/25 03:13:58;;;;;;;1.02;0.80;;;;;;;;;;2073436;28;20042;-79
2021/05/25 03:15:00;;;;;;;2.33;0.98;;;;;;;;;;2073063;28;20038;-80
2021/05/25 03:16:04;;;;;;;2.78;0.70;;;;;;;;;;2071521;28;20053;-80
2021/05/25 03:17:06;;;;;;;1.30;0.85;;;;;;;;;;2073163;28;20038;-79
2021/05/25 03:18:08;;;;;;;2.08;0.90;;;;;;;;;;2072781;28;20110;-79
2021/05/25 03:19:11;;;;;;;3.00;0.98;;;;;;;;;;2073418;28;20037;-80
2021/05/25 03:20:14;;;;;;;1.90;0.80;;;;;;;;;;2072116;28;20046;-80
2021/05/25 03:21:15;;;;;;;1.63;0.80;;;;;;;;;;2065136;28;20034;-80
2021/05/25 03:22:18;;;;;;;1.92;0.77;;;;;;;;;;2072600;28;20133;-80
2021/05/25 03:23:19;;;;;;;2.45;1.02;;;;;;;;;;2080219;28;20041;-80
2021/05/25 03:24:21;;;;;;;2.45;0.93;;;;;;;;;;2080716;28;20072;-78
2021/05/25 03:25:23;;;;;;;2.17;0.93;;;;;;;;;;2069137;28;20530;-78
2021/05/25 03:26:25;;;;;;;2.20;1.08;;;;;;;;;;2078102;28;20046;-80
2021/05/25 03:27:27;;;;;;;1.10;0.80;;;;;;;;;;2069293;28;20060;-79
2021/05/25 03:28:29;;;;;;;1.50;1.00;;;;;;;;;;2069921;28;20050;-79
2021/05/25 03:29:30;;;;;;;1.42;0.95;;;;;;;;;;2079682;28;20041;-80
2021/05/25 03:30:32;;;;;;;1.67;0.80;;;;;;;;;;2079974;28;20045;-80
2021/05/25 03:31:35;;;;;;;1.05;0.93;;;;;;;;;;2067480;28;20503;-80
2021/05/25 03:32:37;;;;;;;4.32;0.90;;;;;;;;;;2072983;28;20045;-78
2021/05/25 03:33:39;;;;;;;1.92;0.82;;;;;;;;;;2079917;28;20529;-79
2021/05/25 03:34:41;;;;;;;1.90;0.93;;;;;;;;;;2080299;28;20040;-78
2021/05/25 03:35:42;;;;;;;1.40;0.70;;;;;;;;;;2072657;28;20050;-79
2021/05/25 03:36:44;;;;;;;1.80;0.93;;;;;;;;;;2072176;28;20431;-79
2021/05/25 03:37:47;;;;;;;1.95;0.82;;;;;;;;;;2073510;28;20542;-79
2021/05/25 03:38:49;;;;;;;0.82;0.65;;;;;;;;;;2080691;28;20049;-80
2021/05/25 03:39:50;;;;;;;2.10;0.82;;;;;;;;;;2071641;28;20045;-80
2021/05/25 03:40:52;;;;;;;1.15;0.90;;;;;;;;;;2068339;28;20057;-78
2021/05/25 03:41:54;;;;;;;2.20;0.88;;;;;;;;;;2070814;28;20069;-80
2021/05/25 03:42:55;;;;;;;2.80;0.85;;;;;;;;;;2075477;28;20531;-79
2021/05/25 03:43:58;;;;;;;1.27;1.00;;;;;;;;;;2079429;28;20056;-78
2021/05/25 03:45:00;;;;;;;1.92;1.02;;;;;;;;;;2071735;28;20044;-81
2021/05/25 03:46:02;;;;;;;2.42;1.50;;;;;;;;;;2070119;28;20038;-80
2021/05/25 03:47:04;;;;;;;1.90;1.27;;;;;;;;;;2072852;28;20081;-80
2021/05/25 03:48:06;;;;;;;2.78;1.20;;;;;;;;;;2071523;28;20704;-79
2021/05/25 03:49:08;;;;;;;1.75;0.90;;;;;;;;;;2065712;28;20038;-79
2021/05/25 03:50:12;;;;;;;2.25;1.20;;;;;;;;;;2062524;28;20038;-80
2021/05/25 03:51:13;;;;;;;2.30;1.20;;;;;;;;;;2063021;28;20038;-80
2021/05/25 03:52:15;;;;;;;2.33;1.00;;;;;;;;;;2063058;28;20042;-80
2021/05/25 03:53:16;;;;;;;1.80;0.85;;;;;;;;;;2068187;28;20046;-79
2021/05/25 03:54:26;;;;;;;2.58;1.20;;;;;;;;;;2071731;28;20045;-79
2021/05/25 03:55:42;;;;;;;2.63;1.20;;;;;;;;;;2064591;28;20089;-80
2021/05/25 03:59:14;;;;;;;2.20;0.90;;;;;;;;;;2072474;28;20069;-80
2021/05/25 04:00:16;;;;;;;1.45;1.00;;;;;;;;;;2072647;28;20037;-80
2021/05/25 04:01:27;;;;;;;1.80;1.00;;;;;;;;;;2079940;28;20052;-80
2021/05/25 04:02:30;;;;;;;1.60;0.80;;;;;;;;;;2078344;28;20042;-79
2021/05/25 04:03:35;;;;;;;1.60;0.93;;;;;;;;;;2072507;28;20168;-80
2021/05/25 04:04:36;;;;;;;1.80;0.95;;;;;;;;;;2071919;28;20507;-80
2021/05/25 04:05:38;;;;;;;3.15;0.98;;;;;;;;;;2063872;28;20042;-79
2021/05/25 04:06:40;;;;;;;3.35;1.23;;;;;;;;;;2071828;28;20045;-79
2021/05/25 04:07:42;;;;;;;0.75;0.75;;;;;;;;;;2079250;28;20033;-79
2021/05/25 04:08:45;;;;;;;2.38;1.00;;;;;;;;;;2071491;28;20058;-80
2021/05/25 04:09:46;;;;;;;3.20;1.10;;;;;;;;;;2063065;28;20046;-80
2021/05/25 04:10:48;;;;;;;3.17;1.00;;;;;;;;;;2056064;28;20046;-81
2021/05/25 04:11:50;;;;;;;2.35;1.00;;;;;;;;;;2056026;28;20046;-80
2021/05/25 04:12:52;;;;;;;3.60;1.27;;;;;;;;;;2063530;28;20039;-80
2021/05/25 04:13:53;;;;;;;4.45;1.00;;;;;;;;;;2071895;28;20041;-79
2021/05/25 04:14:55;;;;;;;4.03;1.05;;;;;;;;;;2071681;28;20045;-80
2021/05/25 04:15:57;;;;;;;2.00;1.02;;;;;;;;;;2064023;28;20119;-80
2021/05/25 04:16:58;;;;;;;2.55;1.00;;;;;;;;;;2056144;28;20034;-80
2021/05/25 04:18:01;;;;;;;2.08;1.00;;;;;;;;;;2061351;28;20034;-81
2021/05/25 04:19:03;;;;;;;3.50;1.10;;;;;;;;;;2064128;28;20042;-81
2021/05/25 04:20:05;;;;;;;3.55;0.80;;;;;;;;;;2071687;28;20038;-81
2021/05/25 04:21:08;;;;;;;2.40;1.10;;;;;;;;;;2079326;28;20100;-79
2021/05/25 04:22:10;;;;;;;3.38;1.30;;;;;;;;;;2072599;28;20684;-80
2021/05/25 04:23:11;;;;;;;3.60;1.08;;;;;;;;;;2070106;28;20426;-79
2021/05/25 04:24:14;;;;;;;2.00;1.02;;;;;;;;;;2079167;28;20045;-80
2021/05/25 04:25:16;;;;;;;4.10;1.20;;;;;;;;;;2079891;28;20045;-80
2021/05/25 04:26:18;;;;;;;1.80;0.98;;;;;;;;;;2080517;28;20049;-80
2021/05/25 04:27:19;;;;;;;1.95;1.15;;;;;;;;;;2080052;28;20041;-80
2021/05/25 04:28:21;;;;;;;1.70;1.00;;;;;;;;;;2080920;28;20033;-79
2021/05/25 04:29:23;;;;;;;2.22;1.00;;;;;;;;;;2064129;28;20408;-80
2021/05/25 04:30:24;;;;;;;1.60;1.00;;;;;;;;;;2056000;28;20053;-80
2021/05/25 04:31:26;;;;;;;3.20;1.23;;;;;;;;;;2071527;28;20443;-80
2021/05/25 04:32:28;;;;;;;2.05;1.13;;;;;;;;;;2079770;28;20057;-80
2021/05/25 04:33:29;;;;;;;2.00;1.20;;;;;;;;;;2063757;28;20046;-80
2021/05/25 04:34:31;;;;;;;2.97;0.93;;;;;;;;;;2063896;28;20053;-80
2021/05/25 04:35:33;;;;;;;2.35;1.00;;;;;;;;;;2062695;28;20478;-79
2021/05/25 04:36:35;;;;;;;1.83;1.10;;;;;;;;;;2055417;28;20078;-80
2021/05/25 04:37:37;;;;;;;1.77;0.90;;;;;;;;;;2062764;28;20055;-81
2021/05/25 04:38:38;;;;;;;3.00;1.35;;;;;;;;;;2063301;28;20042;-80
2021/05/25 04:39:40;;;;;;;3.22;1.17;;;;;;;;;;2054919;28;20126;-79
2021/05/25 04:40:42;;;;;;;2.80;1.13;;;;;;;;;;2055518;28;20053;-80
2021/05/25 04:41:43;;;;;;;2.50;1.30;;;;;;;;;;2065127;28;20046;-80
2021/05/25 04:42:45;;;;;;;2.25;1.17;;;;;;;;;;2065245;28;20054;-79
2021/05/25 04:43:47;;;;;;;3.70;1.20;;;;;;;;;;2057013;28;20043;-80
2021/05/25 04:44:48;;;;;;;1.90;1.08;;;;;;;;;;2065961;28;20046;-80
2021/05/25 04:45:50;;;;;;;2.38;1.05;;;;;;;;;;2064209;28;20046;-80
2021/05/25 04:46:52;;;;;;;2.95;1.20;;;;;;;;;;2069187;28;20057;-77
2021/05/25 04:47:54;;;;;;;2.38;1.20;;;;;;;;;;2072562;28;20053;-78
2021/05/25 04:48:56;;;;;;;2.97;1.30;;;;;;;;;;2064157;28;20046;-78
2021/05/25 04:49:57;;;;;;;1.27;1.10;;;;;;;;;;2069782;28;20128;-78
2021/05/25 04:50:59;;;;;;;2.05;1.60;;;;;;;;;;2079262;28;20068;-79
2021/05/25 04:52:01;;;;;;;3.63;1.30;;;;;;;;;;2070582;28;20057;-78
2021/05/25 04:53:02;;;;;;;1.85;1.30;;;;;;;;;;2059159;28;20043;-79
2021/05/25 04:54:04;;;;;;;3.80;1.05;;;;;;;;;;2063234;28;20050;-79
2021/05/25 04:55:12;;;;;;;2.92;1.27;;;;;;;;;;2070924;28;20064;-79
2021/05/25 04:56:14;;;;;;;5.13;1.40;;;;;;;;;;2070274;28;20042;-80
2021/05/25 04:57:15;;;;;;;2.00;1.10;;;;;;;;;;2071607;28;20049;-79
2021/05/25 04:58:17;;;;;;;1.85;1.08;;;;;;;;;;2070760;28;20280;-79
2021/05/25 04:59:19;;;;;;;3.95;1.10;;;;;;;;;;2063228;28;20038;-78
2021/05/25 05:00:24;;;;;;;2.15;1.10;;;;;;;;;;2054812;28;20077;-80
2021/05/25 05:01:27;;;;;;;6.28;1.70;;;;;;;;;;2065266;28;20084;-79
2021/05/25 05:02:29;;;;;;;1.30;1.10;;;;;;;;;;2071671;28;20046;-78
2021/05/25 05:03:32;;;;;;;1.33;1.10;;;;;;;;;;2072201;28;20038;-78
2021/05/25 05:04:33;;;;;;;2.75;1.10;;;;;;;;;;2072031;28;20706;-79
2021/05/25 05:05:35;;;;;;;1.52;0.80;;;;;;;;;;2072471;28;20129;-79
2021/05/25 05:06:37;;;;;;;2.55;1.30;;;;;;;;;;2071802;28;20038;-80
2021/05/25 05:07:39;;;;;;;2.33;1.20;;;;;;;;;;2071542;28;20050;-79
2021/05/25 05:08:43;;;;;;;2.67;1.20;;;;;;;;;;2071522;28;20045;-79
2021/05/25 05:09:45;;;;;;;3.05;1.30;;;;;;;;;;2071784;28;20072;-79
2021/05/25 05:10:46;;;;;;;3.97;1.30;;;;;;;;;;2079219;28;20613;-79
2021/05/25 05:11:48;;;;;;;1.60;1.08;;;;;;;;;;2079501;28;20044;-80
2021/05/25 05:12:50;;;;;;;1.42;1.10;;;;;;;;;;2079274;28;20049;-80
2021/05/25 05:13:51;;;;;;;2.40;1.20;;;;;;;;;;2079243;28;20034;-80
2021/05/25 05:14:54;;;;;;;1.27;1.10;;;;;;;;;;2071083;28;20042;-79
2021/05/25 05:15:55;;;;;;;1.58;1.30;;;;;;;;;;2078828;28;20535;-80
2021/05/25 05:16:57;;;;;;;2.42;1.10;;;;;;;;;;2077456;28;20037;-80
2021/05/25 05:17:59;;;;;;;4.50;1.25;;;;;;;;;;2079103;28;20454;-78
2021/05/25 05:19:00;;;;;;;3.10;1.35;;;;;;;;;;2072105;28;20045;-80
2021/05/25 05:20:05;;;;;;;4.07;1.10;;;;;;;;;;2071241;28;20072;-80
2021/05/25 05:21:06;;;;;;;1.67;0.98;;;;;;;;;;2078938;28;20049;-80
2021/05/25 05:22:08;;;;;;;3.00;1.10;;;;;;;;;;2078008;28;20038;-80
2021/05/25 05:23:09;;;;;;;1.20;1.10;;;;;;;;;;2076437;28;20061;-80
2021/05/25 05:24:11;;;;;;;1.33;1.13;;;;;;;;;;2078491;28;20034;-78
2021/05/25 05:25:15;;;;;;;4.88;1.30;;;;;;;;;;2071613;28;20111;-81
2021/05/25 05:26:17;;;;;;;4.15;1.30;;;;;;;;;;2078454;28;20052;-80
2021/05/25 05:27:19;;;;;;;1.30;1.20;;;;;;;;;;2070677;28;20049;-80
2021/05/25 05:28:21;;;;;;;2.10;1.05;;;;;;;;;;2062283;28;20039;-79
2021/05/25 05:29:22;;;;;;;1.60;1.25;;;;;;;;;;2062629;28;20054;-81
2021/05/25 05:30:24;;;;;;;2.35;1.33;;;;;;;;;;2061591;28;20053;-79
2021/05/25 05:31:25;;;;;;;2.22;1.17;;;;;;;;;;2054183;28;20054;-80
2021/05/25 05:32:27;;;;;;;3.10;1.27;;;;;;;;;;2060970;28;20266;-80
2021/05/25 05:33:29;;;;;;;2.78;1.20;;;;;;;;;;2061951;28;20050;-80
2021/05/25 05:34:31;;;;;;;2.78;1.35;;;;;;;;;;2069937;28;20042;-80
2021/05/25 05:35:33;;;;;;;3.25;1.50;;;;;;;;;;2071161;28;20073;-79
2021/05/25 05:36:35;;;;;;;2.22;1.10;;;;;;;;;;2063951;28;20042;-79
2021/05/25 05:37:36;;;;;;;2.13;1.25;;;;;;;;;;2062994;28;20046;-80
2021/05/25 05:38:38;;;;;;;2.33;1.27;;;;;;;;;;2063706;28;20065;-80
2021/05/25 05:39:40;;;;;;;3.13;1.20;;;;;;;;;;2063144;28;20718;-79
2021/05/25 05:40:42;;;;;;;1.10;1.00;;;;;;;;;;2064664;28;20042;-79
2021/05/25 05:41:43;;;;;;;2.28;1.00;;;;;;;;;;2064919;28;20042;-78
2021/05/25 05:42:45;;;;;;;2.95;1.27;;;;;;;;;;2064874;28;20046;-78
2021/05/25 05:43:47;;;;;;;2.00;1.20;;;;;;;;;;2064493;28;20047;-79
2021/05/25 05:44:49;;;;;;;3.13;1.00;;;;;;;;;;2055928;28;20051;-78
2021/05/25 05:45:50;;;;;;;1.00;0.88;;;;;;;;;;2055911;28;20467;-78
2021/05/25 05:46:57;;;;;;;4.15;1.23;;;;;;;;;;2064473;28;20129;-79
2021/05/25 05:47:59;;;;;;;2.08;1.10;;;;;;;;;;2064034;28;20053;-78
2021/05/25 05:49:00;;;;;;;1.42;1.10;;;;;;;;;;2072715;28;20050;-79
2021/05/25 05:50:10;;;;;;;1.83;1.00;;;;;;;;;;2070373;28;20602;-78
2021/05/25 05:51:11;;;;;;;1.73;1.20;;;;;;;;;;2064190;28;20389;-78
2021/05/25 05:52:13;;;;;;;1.38;1.00;;;;;;;;;;2064404;28;20034;-77
2021/05/25 05:53:14;;;;;;;1.83;1.20;;;;;;;;;;2070493;28;20079;-79
2021/05/25 05:54:16;;;;;;;2.95;1.02;;;;;;;;;;2073157;28;20038;-78
2021/05/25 05:55:18;;;;;;;2.83;1.10;;;;;;;;;;2071965;28;20415;-78
2021/05/25 05:56:20;;;;;;;2.25;1.20;;;;;;;;;;2072043;28;20053;-78
2021/05/25 05:57:22;;;;;;;3.65;0.98;;;;;;;;;;2080524;28;20562;-80
2021/05/25 05:58:23;;;;;;;1.13;0.90;;;;;;;;;;2079994;28;20056;-79
2021/05/25 05:59:25;;;;;;;2.25;1.00;;;;;;;;;;2073437;28;20038;-81
2021/05/25 06:00:27;;;;;;;1.30;0.85;;;;;;;;;;2071377;28;20061;-79
2021/05/25 06:01:28;;;;;;;2.30;0.90;;;;;;;;;;2071900;28;20045;-80
2021/05/25 06:02:30;;;;;;;3.75;1.10;;;;;;;;;;2070883;28;20061;-80
2021/05/25 06:03:32;;;;;;;2.53;0.95;;;;;;;;;;2066849;28;20053;-79
2021/05/25 06:04:34;;;;;;;1.42;0.90;;;;;;;;;;2076874;28;20053;-79
2021/05/25 06:05:36;;;;;;;0.80;0.77;;;;;;;;;;2066653;28;20046;-79
2021/05/25 06:06:38;;;;;;;1.83;0.98;;;;;;;;;;2063851;28;20436;-80
2021/05/25 06:07:39;;;;;;;2.45;0.90;;;;;;;;;;2055674;28;20054;-79
2021/05/25 06:08:41;;;;;;;1.63;0.90;;;;;;;;;;2063751;28;20582;-79
2021/05/25 06:09:44;;;;;;;1.27;0.93;;;;;;;;;;2064480;28;20043;-80
2021/05/25 06:10:54;;;;;;;1.65;0.93;;;;;;;;;;2065489;28;20096;-80
2021/05/25 06:11:56;;;;;;;0.80;0.70;;;;;;;;;;2065324;28;20054;-79
2021/05/25 06:12:57;;;;;;;1.55;0.90;;;;;;;;;;2072257;28;20522;-79
2021/05/25 06:13:59;;;;;;;2.45;0.77;;;;;;;;;;2079664;28;20053;-81
2021/05/25 06:15:01;;;;;;;1.27;0.93;;;;;;;;;;2072843;28;20414;-80
2021/05/25 06:16:03;;;;;;;4.47;1.13;;;;;;;;;;2073047;28;20038;-79